Time;durP1;ratioP1;P1;durP2;ratioP2;P2;SDS_P1;SDS_P2;PMS_P1;PMS_P2;Temp;Humidity;BMP_temperature;BMP_pressure;BME280_temperature;BME280_humidity;BME280_pressure;Samples;Min_cycle;Max_cycle;Signal;HPM_P1;HPM_P2
2023/06/29 00:01:04;;;;;;;17.48;13.68;;;20.30;99.90;;;;;;5074583;28;20240;-88
2023/06/29 00:03:31;;;;;;;20.17;14.18;;;20.30;99.90;;;;;;5076879;28;20572;-92
2023/06/29 00:05:59;;;;;;;19.10;14.30;;;20.30;99.90;;;;;;5078449;28;20205;-89
2023/06/29 00:08:27;;;;;;;14.85;13.20;;;20.30;99.90;;;;;;5078285;28;20200;-89
2023/06/29 00:10:55;;;;;;;17.00;14.18;;;20.30;99.90;;;;;;5062288;28;20233;-92
2023/06/29 00:13:23;;;;;;;20.88;13.95;;;20.30;99.90;;;;;;5057984;28;20606;-92
2023/06/29 00:15:51;;;;;;;16.38;13.82;;;20.30;99.90;;;;;;5058017;28;20797;-89
2023/06/29 00:18:20;;;;;;;17.92;13.68;;;20.20;99.90;;;;;;5058247;28;20235;-89
2023/06/29 00:20:47;;;;;;;16.92;12.85;;;20.20;99.90;;;;;;5058410;28;20222;-92
2023/06/29 00:23:13;;;;;;;20.30;13.30;;;20.20;99.90;;;;;;5074729;28;20212;-92
2023/06/29 00:25:41;;;;;;;18.67;14.80;;;20.20;99.90;;;;;;5078014;28;20284;-93
2023/06/29 00:28:08;;;;;;;17.38;14.27;;;20.20;99.90;;;;;;5077597;28;20201;-92
2023/06/29 00:30:35;;;;;;;16.13;13.18;;;20.20;99.90;;;;;;5078073;28;20263;-92
2023/06/29 00:33:04;;;;;;;19.75;14.25;;;20.20;99.90;;;;;;5078406;28;20201;-93
2023/06/29 00:35:32;;;;;;;19.60;14.35;;;20.20;99.90;;;;;;5066177;28;20296;-94
2023/06/29 00:37:59;;;;;;;22.17;16.05;;;20.20;99.90;;;;;;5057981;28;20234;-90
2023/06/29 00:40:27;;;;;;;18.65;15.27;;;20.20;99.90;;;;;;5057886;28;20217;-92
2023/06/29 00:42:55;;;;;;;19.83;15.73;;;20.20;99.90;;;;;;5058023;28;20390;-90
2023/06/29 00:45:22;;;;;;;20.67;15.82;;;20.20;99.90;;;;;;5058166;28;20583;-90
2023/06/29 00:47:49;;;;;;;19.67;15.65;;;20.20;99.90;;;;;;5057810;28;20233;-87
2023/06/29 00:50:18;;;;;;;17.73;14.30;;;20.20;99.90;;;;;;5057217;28;20202;-91
2023/06/29 00:52:45;;;;;;;19.90;15.88;;;20.20;99.90;;;;;;5057571;28;20198;-90
2023/06/29 00:55:12;;;;;;;21.30;15.65;;;20.10;99.90;;;;;;5057689;28;20317;-93
2023/06/29 00:57:39;;;;;;;20.27;15.93;;;20.10;99.90;;;;;;5057323;28;20194;-91
2023/06/29 01:00:10;;;;;;;21.58;15.73;;;20.10;99.90;;;;;;5057460;28;20218;-93
2023/06/29 01:02:40;;;;;;;21.80;16.30;;;20.10;99.90;;;;;;5057462;28;20191;-89
2023/06/29 01:05:09;;;;;;;17.15;14.55;;;20.10;99.90;;;;;;5057491;28;20234;-87
2023/06/29 01:07:46;;;;;;;20.00;16.23;;;20.20;99.90;;;;;;5057995;28;20260;-92
2023/06/29 01:10:15;;;;;;;24.23;16.25;;;20.20;99.90;;;;;;5057342;28;20228;-92
2023/06/29 01:12:43;;;;;;;18.70;14.30;;;20.20;99.90;;;;;;5057155;28;20206;-90
2023/06/29 01:15:11;;;;;;;18.67;14.90;;;20.20;99.90;;;;;;5056979;28;20610;-92
2023/06/29 01:17:40;;;;;;;16.48;14.07;;;20.10;99.90;;;;;;5074932;28;20296;-93
2023/06/29 01:20:11;;;;;;;17.17;13.45;;;20.10;99.90;;;;;;5076809;28;20231;-92
2023/06/29 01:22:45;;;;;;;22.10;16.20;;;20.10;99.90;;;;;;5077227;28;20247;-86
2023/06/29 01:25:13;;;;;;;22.10;14.15;;;20.00;99.90;;;;;;5075319;28;20217;-90
2023/06/29 01:27:43;;;;;;;17.20;13.80;;;20.00;99.90;;;;;;5077312;28;20182;-88
2023/06/29 01:30:11;;;;;;;19.45;13.70;;;19.90;99.90;;;;;;5062069;28;20206;-89
2023/06/29 01:32:38;;;;;;;17.10;12.93;;;19.90;99.90;;;;;;5056245;28;20220;-92
2023/06/29 01:35:08;;;;;;;18.30;13.18;;;19.90;99.90;;;;;;5056907;28;20808;-88
2023/06/29 01:37:43;;;;;;;19.80;13.15;;;19.90;99.90;;;;;;5057860;28;20514;-90
2023/06/29 01:40:12;;;;;;;17.30;13.70;;;19.90;99.90;;;;;;5057164;28;20379;-88
2023/06/29 01:42:42;;;;;;;19.52;13.48;;;19.90;99.90;;;;;;5074550;28;20243;-92
2023/06/29 01:45:09;;;;;;;24.00;14.00;;;19.90;99.90;;;;;;5076425;28;20221;-89
2023/06/29 01:47:37;;;;;;;20.45;14.30;;;19.90;99.90;;;;;;5077137;28;20219;-91
2023/06/29 01:50:05;;;;;;;17.73;14.45;;;19.80;99.90;;;;;;5076751;28;20193;-93
2023/06/29 01:52:32;;;;;;;18.90;15.18;;;19.80;99.90;;;;;;5074780;28;20605;-87
2023/06/29 01:54:59;;;;;;;21.13;14.13;;;19.90;99.90;;;;;;5056268;28;20303;-93
2023/06/29 01:57:26;;;;;;;16.10;13.10;;;19.90;99.90;;;;;;5056642;28;20758;-91
2023/06/29 01:59:54;;;;;;;21.98;15.50;;;19.80;99.90;;;;;;5056588;28;20518;-91
2023/06/29 02:02:21;;;;;;;21.38;15.65;;;19.80;99.90;;;;;;5056588;28;20198;-91
2023/06/29 02:04:48;;;;;;;19.55;14.98;;;19.80;99.90;;;;;;5056608;28;20198;-90
2023/06/29 02:07:15;;;;;;;20.20;14.75;;;19.80;99.90;;;;;;5056371;28;20225;-92
2023/06/29 02:09:43;;;;;;;20.63;14.82;;;19.80;99.90;;;;;;5055983;28;20198;-90
2023/06/29 02:12:12;;;;;;;18.17;15.05;;;19.80;99.90;;;;;;5056150;28;20202;-89
2023/06/29 02:14:39;;;;;;;20.88;14.90;;;19.80;99.90;;;;;;5056077;28;20202;-91
2023/06/29 02:17:07;;;;;;;18.00;13.93;;;19.80;99.90;;;;;;5056730;28;20202;-90
2023/06/29 02:19:34;;;;;;;20.50;14.77;;;19.70;99.90;;;;;;5056083;28;20226;-91
2023/06/29 02:22:01;;;;;;;19.30;14.65;;;19.70;99.90;;;;;;5056505;28;20206;-90
2023/06/29 02:24:28;;;;;;;22.65;15.20;;;19.70;99.90;;;;;;5055985;28;20202;-87
2023/06/29 02:26:55;;;;;;;20.25;15.15;;;19.60;99.90;;;;;;5055830;28;20201;-90
2023/06/29 02:29:22;;;;;;;19.98;15.57;;;19.60;99.90;;;;;;5056148;28;20209;-90
2023/06/29 02:31:49;;;;;;;19.08;14.73;;;19.60;99.90;;;;;;5055985;28;20194;-91
2023/06/29 02:34:18;;;;;;;17.75;13.60;;;19.50;99.90;;;;;;5055889;28;20198;-91
2023/06/29 02:36:44;;;;;;;21.85;15.57;;;19.50;99.90;;;;;;5056127;28;20230;-89
2023/06/29 02:39:11;;;;;;;22.17;16.58;;;19.50;99.90;;;;;;5055978;28;20229;-89
2023/06/29 02:41:38;;;;;;;21.92;16.17;;;19.50;99.90;;;;;;5055427;28;20255;-89
2023/06/29 02:44:05;;;;;;;22.10;15.52;;;19.40;99.90;;;;;;5055451;28;20190;-85
2023/06/29 02:46:32;;;;;;;22.42;14.20;;;19.40;99.90;;;;;;5055494;28;20225;-89
2023/06/29 02:51:26;;;;;;;18.25;14.43;;;19.40;99.90;;;;;;5059106;22;20325;-87
2023/06/29 02:53:53;;;;;;;23.65;15.80;;;19.40;99.90;;;;;;5046249;28;20214;-90
2023/06/29 02:56:20;;;;;;;22.65;15.68;;;19.30;99.90;;;;;;5035335;28;20234;-91
2023/06/29 02:58:47;;;;;;;21.13;15.95;;;19.40;99.90;;;;;;5035433;28;20607;-90
2023/06/29 03:01:13;;;;;;;27.30;17.65;;;19.30;99.90;;;;;;5043638;28;20245;-88
2023/06/29 03:03:40;;;;;;;18.98;14.82;;;19.40;99.90;;;;;;5054922;28;20622;-84
2023/06/29 03:06:07;;;;;;;26.13;14.90;;;19.30;99.90;;;;;;5044454;28;20207;-78
2023/06/29 03:08:36;;;;;;;19.33;14.52;;;19.40;99.90;;;;;;5035322;28;20222;-90
2023/06/29 03:11:02;;;;;;;16.13;13.70;;;19.30;99.90;;;;;;5055130;28;20225;-89
2023/06/29 03:13:30;;;;;;;17.17;14.23;;;19.30;99.90;;;;;;5054608;28;20594;-82
2023/06/29 03:15:59;;;;;;;20.38;15.73;;;19.30;99.90;;;;;;5054560;28;20197;-91
2023/06/29 03:18:26;;;;;;;22.40;15.68;;;19.30;99.90;;;;;;5048856;28;20203;-81
2023/06/29 03:20:53;;;;;;;19.25;14.93;;;19.30;99.90;;;;;;5035046;28;20399;-89
2023/06/29 03:23:20;;;;;;;20.20;15.30;;;19.30;99.90;;;;;;5035472;28;20198;-90
2023/06/29 03:25:48;;;;;;;19.50;14.30;;;19.30;99.90;;;;;;5033347;28;20195;-77
2023/06/29 03:28:15;;;;;;;20.25;14.38;;;19.30;99.90;;;;;;5032910;28;20241;-77
2023/06/29 03:30:42;;;;;;;19.08;14.32;;;19.30;99.90;;;;;;5033199;28;20205;-78
2023/06/29 03:33:09;;;;;;;17.08;13.25;;;19.30;99.90;;;;;;5032631;28;20206;-78
2023/06/29 03:35:36;;;;;;;18.05;14.60;;;19.30;99.90;;;;;;5033321;28;20599;-77
2023/06/29 03:38:07;;;;;;;17.13;14.00;;;19.30;99.90;;;;;;5034468;28;20197;-78
2023/06/29 03:40:34;;;;;;;16.25;13.98;;;19.30;99.90;;;;;;5036714;28;20230;-78
2023/06/29 03:43:03;;;;;;;16.30;14.13;;;19.30;99.90;;;;;;5036577;28;20212;-78
2023/06/29 03:45:30;;;;;;;24.65;15.90;;;19.30;99.90;;;;;;5036750;28;20256;-78
2023/06/29 03:47:57;;;;;;;19.23;15.15;;;19.30;99.90;;;;;;5036394;28;20229;-78
2023/06/29 03:50:24;;;;;;;16.00;14.20;;;19.30;99.90;;;;;;5036660;28;20292;-78
2023/06/29 03:52:51;;;;;;;16.35;13.57;;;19.30;99.90;;;;;;5036762;28;20584;-77
2023/06/29 03:55:19;;;;;;;17.48;14.20;;;19.30;99.90;;;;;;5036480;28;20294;-78
2023/06/29 03:57:46;;;;;;;17.38;14.43;;;19.30;99.90;;;;;;5036893;28;20234;-79
2023/06/29 04:00:15;;;;;;;19.48;15.55;;;19.30;99.90;;;;;;5036187;28;20233;-79
2023/06/29 04:02:42;;;;;;;17.50;14.15;;;19.30;99.90;;;;;;5036774;28;20226;-78
2023/06/29 04:05:09;;;;;;;20.65;16.45;;;19.30;99.90;;;;;;5036504;28;20194;-78
2023/06/29 04:07:36;;;;;;;20.45;14.95;;;19.30;99.90;;;;;;5039322;28;20293;-90
2023/06/29 04:10:03;;;;;;;24.48;17.92;;;19.30;99.90;;;;;;5038928;28;20229;-91
2023/06/29 04:12:30;;;;;;;20.50;17.02;;;19.30;99.90;;;;;;5038618;28;20284;-91
2023/06/29 04:14:57;;;;;;;23.45;17.52;;;19.30;99.90;;;;;;5038482;28;20265;-90
2023/06/29 04:17:25;;;;;;;19.90;16.27;;;19.40;99.90;;;;;;5038470;28;20206;-91
2023/06/29 04:19:52;;;;;;;18.75;15.48;;;19.40;99.90;;;;;;5038375;28;20755;-92
2023/06/29 04:22:19;;;;;;;19.65;16.23;;;19.40;99.90;;;;;;5038198;28;20300;-92
2023/06/29 04:24:46;;;;;;;23.98;18.80;;;19.40;99.90;;;;;;5038708;28;20245;-86
2023/06/29 04:27:13;;;;;;;23.42;17.48;;;19.40;99.90;;;;;;5037976;28;20229;-90
2023/06/29 04:29:42;;;;;;;22.60;16.85;;;19.40;99.90;;;;;;5036610;28;20260;-83
2023/06/29 04:32:09;;;;;;;26.05;19.52;;;19.40;99.90;;;;;;5036058;28;20199;-82
2023/06/29 04:34:38;;;;;;;29.23;21.27;;;19.40;99.90;;;;;;5035883;28;20712;-78
2023/06/29 04:37:06;;;;;;;23.30;18.60;;;19.40;99.90;;;;;;5035710;28;20663;-79
2023/06/29 04:39:33;;;;;;;28.50;21.25;;;19.40;99.90;;;;;;5035498;28;20207;-80
2023/06/29 04:42:02;;;;;;;29.30;22.40;;;19.40;99.90;;;;;;5035899;28;20218;-79
2023/06/29 04:44:31;;;;;;;29.75;21.60;;;19.50;99.90;;;;;;5035289;28;20202;-77
2023/06/29 04:47:01;;;;;;;29.35;21.55;;;19.50;99.90;;;;;;5035725;28;20199;-81
2023/06/29 04:49:31;;;;;;;23.80;19.50;;;19.40;99.90;;;;;;5034651;28;20238;-78
2023/06/29 04:52:00;;;;;;;26.35;21.05;;;19.40;99.90;;;;;;5035626;28;20264;-78
2023/06/29 04:54:27;;;;;;;32.72;22.45;;;19.40;99.90;;;;;;5035693;28;20195;-76
2023/06/29 04:56:56;;;;;;;30.33;22.25;;;19.50;99.90;;;;;;5057816;22;20320;-84
2023/06/29 04:59:24;;;;;;;29.23;21.50;;;19.50;99.90;;;;;;5038506;28;20207;-90
2023/06/29 05:01:52;;;;;;;31.40;22.55;;;19.50;99.90;;;;;;5037093;28;20258;-82
2023/06/29 05:04:19;;;;;;;29.67;22.00;;;19.50;99.90;;;;;;5037532;28;20203;-92
2023/06/29 05:06:46;;;;;;;28.77;20.90;;;19.50;99.90;;;;;;5037855;28;20218;-83
2023/06/29 05:09:15;;;;;;;27.45;21.02;;;19.50;99.90;;;;;;5044165;28;20574;-93
2023/06/29 05:11:43;;;;;;;23.73;18.92;;;19.50;99.90;;;;;;5057742;28;20193;-92
2023/06/29 05:14:10;;;;;;;21.85;17.50;;;19.50;99.90;;;;;;5057966;28;20232;-92
2023/06/29 05:16:37;;;;;;;24.73;18.92;;;19.50;99.90;;;;;;5057406;28;20190;-93
2023/06/29 05:19:05;;;;;;;26.05;20.42;;;19.50;99.90;;;;;;5056494;28;20212;-86
2023/06/29 05:21:32;;;;;;;25.13;19.65;;;19.60;99.90;;;;;;5056847;28;20213;-87
2023/06/29 05:23:59;;;;;;;27.00;19.75;;;19.60;99.90;;;;;;5060108;28;20214;-79
2023/06/29 05:26:27;;;;;;;29.02;20.23;;;19.50;99.90;;;;;;5057436;28;20236;-80
2023/06/29 05:28:54;;;;;;;25.80;20.02;;;19.60;99.90;;;;;;5056088;28;20277;-87
2023/06/29 05:31:21;;;;;;;31.95;21.35;;;19.60;99.90;;;;;;5056299;28;20190;-93
2023/06/29 05:33:48;;;;;;;27.08;19.98;;;19.60;99.90;;;;;;5054330;28;20533;-91
2023/06/29 05:36:15;;;;;;;27.50;20.55;;;19.60;99.90;;;;;;5037090;28;20198;-93
2023/06/29 05:38:42;;;;;;;30.08;22.35;;;19.60;99.90;;;;;;5048843;28;20214;-87
2023/06/29 05:41:09;;;;;;;35.28;22.30;;;19.70;99.90;;;;;;5056047;28;20226;-90
2023/06/29 05:43:37;;;;;;;25.73;20.35;;;19.70;99.90;;;;;;5050761;28;20202;-90
2023/06/29 05:46:04;;;;;;;28.15;21.13;;;19.70;99.90;;;;;;5036304;28;20226;-90
2023/06/29 05:48:31;;;;;;;25.60;20.88;;;19.70;99.90;;;;;;5036959;28;20226;-79
2023/06/29 05:50:58;;;;;;;25.58;20.33;;;19.70;99.90;;;;;;5036689;28;20301;-84
2023/06/29 05:53:25;;;;;;;29.48;20.73;;;19.70;99.90;;;;;;5055463;28;20198;-87
2023/06/29 05:55:52;;;;;;;29.83;23.85;;;19.70;99.90;;;;;;5055162;28;20238;-82
2023/06/29 05:58:18;;;;;;;27.90;21.55;;;19.70;99.90;;;;;;5056750;28;20240;-85
2023/06/29 06:00:47;;;;;;;27.75;22.38;;;19.70;99.90;;;;;;5054829;28;20334;-90
2023/06/29 06:03:15;;;;;;;30.13;23.15;;;19.70;99.90;;;;;;5038563;28;20210;-91
2023/06/29 06:05:42;;;;;;;30.60;23.27;;;19.70;99.90;;;;;;5036974;28;20201;-83
2023/06/29 06:08:09;;;;;;;29.77;22.10;;;19.70;99.90;;;;;;5036300;28;20230;-83
2023/06/29 06:10:36;;;;;;;28.75;21.00;;;19.70;99.90;;;;;;5035668;28;20210;-79
2023/06/29 06:13:04;;;;;;;31.77;22.40;;;19.70;99.90;;;;;;5036349;28;20197;-87
2023/06/29 06:15:31;;;;;;;30.65;24.33;;;19.80;99.90;;;;;;5036575;28;20241;-81
2023/06/29 06:17:59;;;;;;;32.83;23.55;;;19.80;99.90;;;;;;5036419;28;20221;-87
2023/06/29 06:20:26;;;;;;;31.17;23.48;;;19.90;99.90;;;;;;5036018;28;20231;-87
2023/06/29 06:22:53;;;;;;;32.75;23.17;;;19.90;99.90;;;;;;5035770;28;20230;-84
2023/06/29 06:25:20;;;;;;;31.17;24.13;;;19.90;99.90;;;;;;5037330;28;20272;-83
2023/06/29 06:27:47;;;;;;;30.88;24.48;;;19.90;99.90;;;;;;5035501;28;20199;-91
2023/06/29 06:30:14;;;;;;;32.72;24.92;;;19.90;99.90;;;;;;5034680;28;20999;-90
2023/06/29 06:32:42;;;;;;;32.95;24.25;;;19.90;99.90;;;;;;5035159;28;20260;-88
2023/06/29 06:35:12;;;;;;;29.00;22.42;;;19.90;99.90;;;;;;5034689;28;20202;-89
2023/06/29 06:37:40;;;;;;;31.73;25.48;;;19.90;99.90;;;;;;5036015;28;20214;-88
2023/06/29 06:40:09;;;;;;;29.30;23.63;;;20.00;99.90;;;;;;5037663;28;20194;-86
2023/06/29 06:42:37;;;;;;;31.80;24.88;;;20.00;99.90;;;;;;5036780;28;20308;-92
2023/06/29 06:45:05;;;;;;;33.88;27.08;;;20.00;99.90;;;;;;5036224;28;20333;-84
2023/06/29 06:47:32;;;;;;;33.45;24.77;;;20.10;99.90;;;;;;5036306;28;20218;-92
2023/06/29 06:49:59;;;;;;;31.58;24.63;;;20.00;99.90;;;;;;5034577;28;20210;-91
2023/06/29 06:52:27;;;;;;;30.90;20.88;;;20.10;99.90;;;;;;5034782;28;20268;-83
2023/06/29 06:54:55;;;;;;;29.23;21.33;;;20.10;99.90;;;;;;5035760;28;20228;-93
2023/06/29 06:57:23;;;;;;;27.10;20.40;;;20.20;99.90;;;;;;5036934;28;20648;-91
2023/06/29 06:59:50;;;;;;;25.42;18.33;;;20.20;99.90;;;;;;5036872;28;20451;-94
2023/06/29 07:02:18;;;;;;;22.73;17.88;;;20.30;99.90;;;;;;5037545;28;20514;-93
2023/06/29 07:04:45;;;;;;;25.52;18.52;;;20.30;99.90;;;;;;5037414;28;20594;-94
2023/06/29 07:07:12;;;;;;;24.00;18.90;;;20.40;99.90;;;;;;5055808;28;20532;-84
2023/06/29 07:09:40;;;;;;;23.50;17.50;;;20.40;99.90;;;;;;5056321;28;20241;-84
2023/06/29 07:12:09;;;;;;;24.40;18.55;;;20.50;99.90;;;;;;5057411;28;20190;-92
2023/06/29 07:14:36;;;;;;;28.55;18.38;;;20.50;99.90;;;;;;5060626;28;20205;-92
2023/06/29 07:17:03;;;;;;;28.00;17.63;;;20.50;99.90;;;;;;5060142;28;20217;-86
2023/06/29 07:19:33;;;;;;;23.58;17.20;;;20.60;99.90;;;;;;5060567;28;20221;-87
2023/06/29 07:22:00;;;;;;;22.70;16.98;;;20.60;99.90;;;;;;5056028;28;20218;-86
2023/06/29 07:24:27;;;;;;;24.42;17.17;;;20.70;99.90;;;;;;5040332;28;20195;-85
2023/06/29 07:26:55;;;;;;;27.88;18.13;;;20.80;99.90;;;;;;5039979;28;20229;-83
2023/06/29 07:29:22;;;;;;;23.73;17.25;;;20.80;99.90;;;;;;5039893;28;20233;-88
2023/06/29 07:31:49;;;;;;;24.15;17.63;;;20.80;99.90;;;;;;5040844;28;20280;-92
2023/06/29 07:34:19;;;;;;;22.35;16.38;;;20.80;99.90;;;;;;5040576;28;20258;-94
2023/06/29 07:36:45;;;;;;;23.00;17.13;;;20.70;99.90;;;;;;5041058;28;20218;-94
2023/06/29 07:39:12;;;;;;;23.02;17.25;;;20.70;99.90;;;;;;5041690;28;20199;-95
2023/06/29 07:41:39;;;;;;;22.30;16.27;;;20.70;99.90;;;;;;5043037;28;20226;-92
2023/06/29 07:44:08;;;;;;;26.70;17.92;;;20.80;99.90;;;;;;5060351;28;20198;-85
2023/06/29 07:46:35;;;;;;;21.92;17.15;;;20.80;99.90;;;;;;5059950;28;20244;-94
2023/06/29 07:49:02;;;;;;;24.73;17.30;;;20.80;99.90;;;;;;5059781;28;20218;-84
2023/06/29 07:51:32;;;;;;;23.92;17.20;;;20.80;99.90;;;;;;5046356;28;20203;-91
2023/06/29 07:54:00;;;;;;;24.48;17.52;;;20.80;99.90;;;;;;5039794;28;20210;-89
2023/06/29 07:56:27;;;;;;;20.95;15.85;;;20.90;99.90;;;;;;5039521;28;20238;-88
2023/06/29 07:58:54;;;;;;;25.67;19.23;;;20.90;99.90;;;;;;5039492;28;20230;-92
2023/06/29 08:01:23;;;;;;;26.75;17.90;;;21.00;99.90;;;;;;5051899;28;20218;-90
2023/06/29 08:03:49;;;;;;;21.42;15.73;;;21.00;99.90;;;;;;5059274;28;20345;-86
2023/06/29 08:06:17;;;;;;;20.92;15.68;;;21.20;99.90;;;;;;5059534;28;20240;-91
2023/06/29 08:08:44;;;;;;;28.88;18.05;;;21.20;99.90;;;;;;5042037;28;20563;-84
2023/06/29 08:11:12;;;;;;;25.02;16.35;;;21.30;99.90;;;;;;5039293;28;20229;-79
2023/06/29 08:13:39;;;;;;;21.05;14.88;;;21.30;99.90;;;;;;5039086;28;20756;-91
2023/06/29 08:16:07;;;;;;;22.83;17.55;;;21.30;99.90;;;;;;5058509;28;20202;-87
2023/06/29 08:18:35;;;;;;;25.15;17.25;;;21.30;99.90;;;;;;5049573;28;20282;-87
2023/06/29 08:21:02;;;;;;;24.77;15.68;;;21.30;99.90;;;;;;5038274;28;20198;-89
2023/06/29 08:23:31;;;;;;;21.42;15.90;;;21.30;99.90;;;;;;5047735;28;20241;-88
2023/06/29 08:25:58;;;;;;;19.35;15.30;;;21.30;99.90;;;;;;5057977;28;20589;-88
2023/06/29 08:28:25;;;;;;;22.60;15.93;;;21.30;99.90;;;;;;5058102;28;20202;-90
2023/06/29 08:30:52;;;;;;;26.38;15.55;;;21.40;99.90;;;;;;5058278;28;20198;-86
2023/06/29 08:33:19;;;;;;;23.15;16.33;;;21.50;99.90;;;;;;5038446;28;20199;-87
2023/06/29 08:35:47;;;;;;;21.15;15.68;;;21.50;99.90;;;;;;5037811;28;20194;-88
2023/06/29 08:38:14;;;;;;;21.08;15.20;;;21.60;99.90;;;;;;5037240;28;20194;-91
2023/06/29 08:40:42;;;;;;;23.85;16.13;;;21.70;99.90;;;;;;5038592;28;20245;-90
2023/06/29 08:43:11;;;;;;;22.85;16.05;;;21.80;99.90;;;;;;5038150;28;20272;-89
2023/06/29 08:45:38;;;;;;;24.25;17.20;;;21.90;99.90;;;;;;5037593;28;20238;-90
2023/06/29 08:48:06;;;;;;;21.90;17.35;;;22.00;99.90;;;;;;5037933;28;20249;-92
2023/06/29 08:50:36;;;;;;;27.35;17.25;;;21.90;99.90;;;;;;5038267;28;20285;-87
2023/06/29 08:53:04;;;;;;;21.20;16.35;;;22.00;99.90;;;;;;5037339;28;20670;-80
2023/06/29 08:55:31;;;;;;;25.27;17.50;;;22.00;99.90;;;;;;5036608;28;20635;-80
2023/06/29 08:57:58;;;;;;;24.15;16.10;;;22.00;99.90;;;;;;5037457;28;20191;-86
2023/06/29 09:00:26;;;;;;;28.05;17.35;;;22.00;99.90;;;;;;5038100;28;20229;-91
2023/06/29 09:02:54;;;;;;;22.02;16.90;;;21.90;99.90;;;;;;5036941;28;20206;-82
2023/06/29 09:05:22;;;;;;;26.25;18.48;;;21.90;99.90;;;;;;5036681;28;20216;-87
2023/06/29 09:07:50;;;;;;;29.85;18.45;;;21.90;99.90;;;;;;5037076;28;20245;-91
2023/06/29 09:10:19;;;;;;;28.88;19.48;;;21.90;99.90;;;;;;5043970;28;20292;-81
2023/06/29 09:12:46;;;;;;;26.98;17.80;;;21.70;99.20;;;;;;5057596;28;20190;-92
2023/06/29 09:15:14;;;;;;;24.67;18.65;;;21.70;99.90;;;;;;5057777;28;20202;-87
2023/06/29 09:17:45;;;;;;;27.83;19.73;;;21.70;99.90;;;;;;5051132;28;20264;-86
2023/06/29 09:20:18;;;;;;;28.60;19.35;;;21.70;99.90;;;;;;5036960;28;20257;-90
2023/06/29 09:22:51;;;;;;;27.77;20.63;;;21.60;99.90;;;;;;5036463;28;20284;-81
2023/06/29 09:25:21;;;;;;;25.50;19.45;;;21.60;99.90;;;;;;5036252;28;20199;-87
2023/06/29 09:27:52;;;;;;;30.42;19.98;;;21.60;61.10;;;;;;5052119;28;20197;-82
2023/06/29 09:30:19;;;;;;;30.88;21.00;;;21.50;99.90;;;;;;5056807;28;20198;-86
2023/06/29 09:32:46;;;;;;;29.75;19.30;;;21.50;99.90;;;;;;5056210;28;20591;-90
2023/06/29 09:35:13;;;;;;;26.38;19.13;;;21.40;99.90;;;;;;5049121;28;20234;-90
2023/06/29 09:37:40;;;;;;;22.33;16.15;;;21.40;99.90;;;;;;5036381;28;20285;-89
2023/06/29 09:40:11;;;;;;;25.85;19.30;;;21.40;99.90;;;;;;5037015;28;20349;-87
2023/06/29 09:42:40;;;;;;;29.70;18.73;;;21.40;99.90;;;;;;5036804;28;20619;-86
2023/06/29 09:45:12;;;;;;;32.85;20.92;;;21.40;99.90;;;;;;5036409;28;20210;-86
2023/06/29 09:47:41;;;;;;;30.33;19.88;;;21.50;99.90;;;;;;5050907;28;20229;-92
2023/06/29 09:50:17;;;;;;;31.00;21.25;;;21.40;99.90;;;;;;5056240;28;20194;-95
2023/06/29 09:52:46;;;;;;;27.88;20.23;;;21.40;99.90;;;;;;5057213;28;20202;-94
2023/06/29 09:55:14;;;;;;;30.05;21.35;;;21.40;99.90;;;;;;5044767;28;20206;-94
2023/06/29 09:57:43;;;;;;;32.10;20.92;;;21.40;99.90;;;;;;5036674;28;20588;-88
2023/06/29 10:00:12;;;;;;;33.25;22.55;;;21.40;99.90;;;;;;5036714;28;20191;-84
2023/06/29 10:02:39;;;;;;;28.40;19.40;;;21.40;37.90;;;;;;5035920;28;20569;-88
2023/06/29 10:05:07;;;;;;;28.85;20.52;;;21.30;59.60;;;;;;5036556;28;20674;-86
2023/06/29 10:07:34;;;;;;;31.65;19.73;;;21.30;34.20;;;;;;5050350;28;20209;-85
2023/06/29 10:10:04;;;;;;;24.38;19.33;;;21.30;99.90;;;;;;5055877;28;20210;-84
2023/06/29 10:12:32;;;;;;;28.67;19.80;;;21.30;99.90;;;;;;5056078;28;20225;-90
2023/06/29 10:15:08;;;;;;;28.48;20.55;;;21.40;99.90;;;;;;5048076;28;20301;-89
2023/06/29 10:17:44;;;;;;;24.17;18.15;;;21.40;99.90;;;;;;5035866;28;20277;-87
2023/06/29 10:20:13;;;;;;;30.30;20.42;;;21.50;99.90;;;;;;5035603;28;20280;-82
2023/06/29 10:22:41;;;;;;;28.33;19.15;;;21.50;82.00;;;;;;5035378;28;20261;-79
2023/06/29 10:25:13;;;;;;;26.75;18.65;;;21.60;1.00;;;;;;5051565;28;20255;-86
2023/06/29 10:27:41;;;;;;;26.60;19.40;;;21.80;1.00;;;;;;5054909;28;20194;-82
2023/06/29 10:30:10;;;;;;;28.27;19.33;;;21.90;99.90;;;;;;5055082;28;20277;-84
2023/06/29 10:32:39;;;;;;;22.08;17.50;;;21.90;1.00;;;;;;5042684;28;20209;-85
2023/06/29 10:35:11;;;;;;;26.00;18.52;;;22.00;99.90;;;;;;5035042;28;20248;-85
2023/06/29 10:37:38;;;;;;;24.42;18.70;;;22.00;1.00;;;;;;5035101;28;20218;-85
2023/06/29 10:40:14;;;;;;;26.85;18.80;;;22.00;99.90;;;;;;5035277;28;20207;-83
2023/06/29 10:42:53;;;;;;;27.90;18.83;;;21.90;1.00;;;;;;5034281;28;20235;-85
2023/06/29 10:45:35;;;;;;;25.58;20.60;;;21.90;1.00;;;;;;5039622;28;20277;-81
2023/06/29 10:48:07;;;;;;;24.85;19.23;;;21.80;99.90;;;;;;5054051;28;20226;-89
2023/06/29 10:50:37;;;;;;;28.10;20.42;;;21.80;99.90;;;;;;5042403;28;20217;-84
2023/06/29 10:53:08;;;;;;;25.83;19.65;;;21.70;1.00;;;;;;5035289;28;20194;-82
2023/06/29 10:55:44;;;;;;;30.27;20.48;;;21.70;1.00;;;;;;5033649;28;20311;-83
2023/06/29 10:58:18;;;;;;;29.38;19.80;;;21.70;1.00;;;;;;5038014;28;20210;-88
2023/06/29 11:00:47;;;;;;;32.75;20.83;;;21.70;99.90;;;;;;5034251;28;20194;-78
2023/06/29 11:03:15;;;;;;;25.80;19.13;;;21.60;1.00;;;;;;5033823;28;20265;-78
2023/06/29 11:05:43;;;;;;;29.95;19.83;;;21.60;1.00;;;;;;5033920;28;20205;-79
2023/06/29 11:08:10;;;;;;;25.83;20.38;;;21.70;1.00;;;;;;5034094;28;20209;-80
2023/06/29 11:10:37;;;;;;;29.85;22.10;;;21.70;1.00;;;;;;5033292;28;20763;-80
2023/06/29 11:13:09;;;;;;;33.45;22.90;;;21.70;1.00;;;;;;5034291;28;20208;-85
2023/06/29 11:15:37;;;;;;;31.85;21.35;;;21.70;60.30;;;;;;5034442;28;20207;-79
2023/06/29 11:18:07;;;;;;;29.15;20.65;;;21.70;1.00;;;;;;5034554;28;20191;-80
2023/06/29 11:20:34;;;;;;;30.30;21.23;;;21.80;1.00;;;;;;5035088;28;20198;-79
2023/06/29 11:23:02;;;;;;;28.58;20.23;;;21.80;1.00;;;;;;5047913;28;20222;-82
2023/06/29 11:25:30;;;;;;;28.00;20.02;;;21.80;1.00;;;;;;5053492;28;20551;-87
2023/06/29 11:27:57;;;;;;;32.25;20.65;;;21.80;99.90;;;;;;5053711;28;20228;-78
2023/06/29 11:30:25;;;;;;;31.02;20.77;;;21.80;1.00;;;;;;5048419;28;20199;-84
2023/06/29 11:32:53;;;;;;;27.92;20.67;;;21.70;99.90;;;;;;5034783;28;20237;-83
2023/06/29 11:35:22;;;;;;;31.63;21.45;;;21.60;5.50;;;;;;5034852;28;20202;-79
2023/06/29 11:37:50;;;;;;;30.50;21.13;;;21.60;1.00;;;;;;5034556;28;20256;-80
2023/06/29 11:40:19;;;;;;;28.35;20.30;;;21.50;99.90;;;;;;5035256;28;20219;-80
2023/06/29 11:42:46;;;;;;;30.20;21.67;;;21.50;1.00;;;;;;5036474;28;20314;-83
2023/06/29 11:45:15;;;;;;;29.88;22.17;;;21.50;99.90;;;;;;5048930;28;20266;-85
2023/06/29 11:47:43;;;;;;;31.77;22.15;;;21.60;3.50;;;;;;5052104;28;20203;-85
2023/06/29 11:50:11;;;;;;;31.88;23.48;;;21.70;1.00;;;;;;5064511;28;20607;-88
2023/06/29 11:52:42;;;;;;;34.15;23.83;;;21.80;56.50;;;;;;5063578;28;20214;-83
2023/06/29 11:55:11;;;;;;;30.58;21.55;;;21.90;1.00;;;;;;5057161;28;20225;-87
2023/06/29 11:57:40;;;;;;;31.60;22.00;;;22.10;1.00;;;;;;5047910;28;20202;-80
2023/06/29 12:00:28;;;;;;;32.60;23.00;;;22.20;1.00;;;;;;5038239;28;20199;-86
2023/06/29 12:02:56;;;;;;;26.10;19.48;;;22.30;1.00;;;;;;5047057;28;20275;-87
2023/06/29 12:05:27;;;;;;;27.95;18.38;;;22.40;99.90;;;;;;5058286;28;20280;-86
2023/06/29 12:07:56;;;;;;;26.33;18.80;;;22.50;1.00;;;;;;5058400;28;20273;-86
2023/06/29 12:10:25;;;;;;;29.13;19.67;;;22.40;1.00;;;;;;5058445;28;20490;-84
2023/06/29 12:12:55;;;;;;;26.27;18.23;;;22.30;1.00;;;;;;5038892;28;20206;-84
2023/06/29 12:15:24;;;;;;;23.17;17.20;;;22.20;1.00;;;;;;5038573;28;20218;-91
2023/06/29 12:17:53;;;;;;;25.15;17.80;;;22.10;1.00;;;;;;5038396;28;20199;-90
2023/06/29 12:20:21;;;;;;;20.40;16.58;;;22.00;1.00;;;;;;5038499;28;20194;-82
2023/06/29 12:22:50;;;;;;;22.67;16.80;;;21.90;1.00;;;;;;5038061;28;20254;-88
2023/06/29 12:25:19;;;;;;;20.58;16.45;;;21.80;1.00;;;;;;5038170;28;20278;-83
2023/06/29 12:27:48;;;;;;;21.30;15.40;;;21.80;1.00;;;;;;5037741;28;20562;-91
2023/06/29 12:30:20;;;;;;;16.77;13.60;;;21.80;1.00;;;;;;5037905;28;20206;-85
2023/06/29 12:32:48;;;;;;;17.30;13.57;;;21.80;1.00;;;;;;5038339;28;20198;-87
2023/06/29 12:35:15;;;;;;;17.90;13.50;;;21.90;1.00;;;;;;5037592;28;20210;-84